createdAt,value
2024-04-24T00:02:33.235Z,7.32
2024-04-24T00:05:38.089Z,7.15
2024-04-24T00:08:42.823Z,8.20
2024-04-24T00:11:47.454Z,6.72
2024-04-24T00:14:55.035Z,7.07
2024-04-24T00:17:59.653Z,6.88
2024-04-24T00:21:04.403Z,7.72
2024-04-24T00:24:09.283Z,7.10
2024-04-24T00:27:14.311Z,7.50
2024-04-24T00:30:21.875Z,7.50
2024-04-24T00:33:26.530Z,8.77
2024-04-24T00:36:31.664Z,6.95
2024-04-24T00:39:36.341Z,7.32
2024-04-24T00:42:40.887Z,7.75
2024-04-24T00:45:48.358Z,7.53
2024-04-24T00:48:54.134Z,6.22
2024-04-24T00:51:58.907Z,9.15
2024-04-24T00:55:03.445Z,6.90
2024-04-24T00:58:08.851Z,8.55
2024-04-24T01:01:18.415Z,7.17
2024-04-24T01:04:23.253Z,7.30
2024-04-24T01:07:28.222Z,7.95
2024-04-24T01:10:33.216Z,8.10
2024-04-24T01:13:38.153Z,6.45
2024-04-24T01:16:48.419Z,7.43
2024-04-24T01:19:56.157Z,7.32
2024-04-24T01:23:32.117Z,7.22
2024-04-24T01:26:47.880Z,7.03
2024-04-24T01:29:53.189Z,7.00
2024-04-24T01:32:58.192Z,7.10
2024-04-24T01:36:03.167Z,7.18
2024-04-24T01:39:08.193Z,7.65
2024-04-24T01:42:15.660Z,9.68
2024-04-24T01:45:20.739Z,8.07
2024-04-24T01:48:25.519Z,8.33
2024-04-24T01:51:30.228Z,7.00
2024-04-24T01:54:34.900Z,6.28
2024-04-24T01:57:42.264Z,6.90
2024-04-24T02:00:46.884Z,6.97
2024-04-24T02:03:51.995Z,7.23
2024-04-24T02:06:56.590Z,7.25
2024-04-24T02:10:01.445Z,6.93
2024-04-24T02:13:08.648Z,7.63
2024-04-24T02:16:13.347Z,6.60
2024-04-24T02:19:17.860Z,6.97
2024-04-24T02:22:22.773Z,7.30
2024-04-24T02:25:39.147Z,6.22
2024-04-24T02:28:46.320Z,6.88
2024-04-24T02:31:51.019Z,6.53
2024-04-24T02:34:55.734Z,7.63
2024-04-24T02:38:00.509Z,6.70
2024-04-24T02:41:05.063Z,7.60
2024-04-24T02:44:12.461Z,6.90
2024-04-24T02:47:17.536Z,9.40
2024-04-24T02:50:22.263Z,8.23
2024-04-24T02:53:27.087Z,8.82
2024-04-24T02:56:31.784Z,9.13
2024-04-24T02:59:39.195Z,11.60
2024-04-24T03:02:43.800Z,10.63
2024-04-24T03:05:48.604Z,10.23
2024-04-24T03:08:55.406Z,11.30
2024-04-24T03:12:00.245Z,10.32
2024-04-24T03:15:08.655Z,11.30
2024-04-24T03:18:13.311Z,11.35
2024-04-24T03:21:23.353Z,11.43
2024-04-24T03:24:28.215Z,10.77
2024-04-24T03:27:32.901Z,11.50
2024-04-24T03:30:40.101Z,9.35
2024-04-24T03:33:44.855Z,9.85
2024-04-24T03:36:50.154Z,10.37
2024-04-24T03:39:54.839Z,9.65
2024-04-24T03:42:59.587Z,11.15
2024-04-24T03:46:07.135Z,8.75
2024-04-24T03:49:11.836Z,8.35
2024-04-24T03:52:16.520Z,8.20
2024-04-24T03:55:21.493Z,7.85
2024-04-24T03:58:26.086Z,7.55
2024-04-24T04:01:34.539Z,7.85
2024-04-24T04:04:39.088Z,7.13
2024-04-24T04:07:44.007Z,8.93
2024-04-24T04:10:49.242Z,7.47
2024-04-24T04:13:55.162Z,7.00
2024-04-24T04:17:02.693Z,6.55
2024-04-24T04:20:08.325Z,8.05
2024-04-24T04:23:13.740Z,8.80
2024-04-24T04:26:18.514Z,7.82
2024-04-24T04:29:23.174Z,5.85
2024-04-24T04:32:30.671Z,7.43
2024-04-24T04:35:35.267Z,6.43
2024-04-24T04:38:39.915Z,8.20
2024-04-24T04:41:44.401Z,7.30
2024-04-24T04:44:49.121Z,7.28
2024-04-24T04:47:56.398Z,6.80
2024-04-24T04:51:03.974Z,8.00
2024-04-24T04:54:08.757Z,7.43
2024-04-24T04:57:13.397Z,7.50
2024-04-24T05:00:18.350Z,6.95
2024-04-24T05:03:25.778Z,7.15
2024-04-24T05:06:30.723Z,8.52
2024-04-24T05:09:36.659Z,8.13
2024-04-24T05:12:41.478Z,6.63
2024-04-24T05:15:46.000Z,7.78
2024-04-24T05:18:54.457Z,7.47
2024-04-24T05:21:59.195Z,8.63
2024-04-24T05:25:03.756Z,7.38
2024-04-24T05:28:26.198Z,7.82
2024-04-24T05:31:30.808Z,7.70
2024-04-24T05:34:38.389Z,7.97
2024-04-24T05:37:43.057Z,7.33
2024-04-24T05:40:47.757Z,8.52
2024-04-24T05:43:52.314Z,7.10
2024-04-24T05:46:58.523Z,8.48
2024-04-24T05:50:06.138Z,8.03
2024-04-24T05:53:11.034Z,7.87
2024-04-24T05:56:15.802Z,8.50
2024-04-24T05:59:20.962Z,9.55
2024-04-24T06:02:25.645Z,9.48
2024-04-24T06:05:32.982Z,9.20
2024-04-24T06:08:37.660Z,11.47
2024-04-24T06:11:42.619Z,10.38
2024-04-24T06:14:47.440Z,10.25
2024-04-24T06:17:54.886Z,10.55
2024-04-24T06:21:04.125Z,9.43
2024-04-24T06:24:12.521Z,12.77
2024-04-24T06:27:17.697Z,10.80
2024-04-24T06:30:22.398Z,10.55
2024-04-24T06:33:27.167Z,10.07
2024-04-24T06:36:34.522Z,11.43
2024-04-24T06:39:39.455Z,10.77
2024-04-24T06:42:44.004Z,12.00
2024-04-24T06:45:49.051Z,10.43
2024-04-24T06:48:53.826Z,9.35
2024-04-24T06:52:01.029Z,9.20
2024-04-24T06:55:05.748Z,10.33
2024-04-24T06:58:10.238Z,10.60
2024-04-24T07:01:15.114Z,9.60
2024-04-24T07:04:19.866Z,9.93
2024-04-24T07:07:27.365Z,9.97
2024-04-24T07:10:32.068Z,12.43
2024-04-24T07:13:36.814Z,9.82
2024-04-24T07:16:42.615Z,8.73
2024-04-24T07:19:48.105Z,8.93
2024-04-24T07:22:55.952Z,8.97
2024-04-24T07:26:01.052Z,9.53
2024-04-24T07:29:06.171Z,8.45
2024-04-24T07:32:11.137Z,9.25
2024-04-24T07:35:16.574Z,11.05
2024-04-24T07:38:24.288Z,9.67
2024-04-24T07:41:28.996Z,8.43
2024-04-24T07:44:33.728Z,8.65
2024-04-24T07:47:42.823Z,8.02
2024-04-24T07:50:48.511Z,9.02
2024-04-24T07:53:55.907Z,9.00
2024-04-24T07:57:00.751Z,9.23
2024-04-24T08:00:05.668Z,10.98
2024-04-24T08:03:10.641Z,9.80
2024-04-24T08:06:15.198Z,8.30
2024-04-24T08:09:22.707Z,9.63
2024-04-24T08:12:27.549Z,9.77
2024-04-24T08:15:34.413Z,8.82
2024-04-24T08:18:39.797Z,9.20
2024-04-24T08:21:44.535Z,7.30
2024-04-24T08:24:52.098Z,9.00
2024-04-24T08:27:56.634Z,7.95
2024-04-24T08:31:09.943Z,9.18
2024-04-24T08:34:16.329Z,9.47
2024-04-24T08:37:20.996Z,8.23
2024-04-24T08:40:28.474Z,9.38
2024-04-24T08:43:33.248Z,8.68
2024-04-24T08:46:38.043Z,9.82
2024-04-24T08:49:45.738Z,9.33
2024-04-24T08:52:56.563Z,7.93
2024-04-24T08:56:07.971Z,8.55
2024-04-24T08:59:19.325Z,8.93
2024-04-24T09:02:28.673Z,8.80
2024-04-24T09:05:37.209Z,9.10
2024-04-24T09:08:43.838Z,8.47
2024-04-24T09:11:52.289Z,9.90
2024-04-24T09:14:57.115Z,11.57
2024-04-24T09:18:01.996Z,11.32
2024-04-24T09:21:08.168Z,10.87
2024-04-24T09:24:14.398Z,13.00
2024-04-24T09:27:23.478Z,10.85
2024-04-24T09:30:31.432Z,11.43
2024-04-24T09:33:36.267Z,10.98
2024-04-24T09:36:43.367Z,10.93
2024-04-24T09:39:48.398Z,11.47
2024-04-24T09:42:56.057Z,12.98
2024-04-24T09:46:01.236Z,11.40
2024-04-24T09:49:07.636Z,11.60
2024-04-24T09:52:17.878Z,12.60
2024-04-24T09:55:29.300Z,12.90
2024-04-24T09:58:39.029Z,13.18
2024-04-24T10:01:48.196Z,12.52
2024-04-24T10:04:59.068Z,13.20
2024-04-24T10:08:08.936Z,11.77
2024-04-24T10:11:17.330Z,12.93
2024-04-24T10:14:27.052Z,16.85
2024-04-24T10:17:33.539Z,12.95
2024-04-24T10:20:40.727Z,12.98
2024-04-24T10:23:45.697Z,14.17
2024-04-24T10:26:52.947Z,11.83
2024-04-24T10:30:00.480Z,11.93
2024-04-24T10:33:08.001Z,15.20
2024-04-24T10:36:12.928Z,11.65
2024-04-24T10:39:17.993Z,12.87
2024-04-24T10:42:22.800Z,12.10
2024-04-24T10:45:30.824Z,12.55
2024-04-24T10:49:00.922Z,10.98
2024-04-24T10:52:06.294Z,10.18
2024-04-24T10:55:12.789Z,10.90
2024-04-24T10:58:24.579Z,11.17
2024-04-24T11:01:42.489Z,10.48
2024-04-24T11:04:55.509Z,11.82
2024-04-24T11:08:02.109Z,10.27
2024-04-24T11:11:08.780Z,11.03
2024-04-24T11:14:15.295Z,10.93
2024-04-24T11:17:27.598Z,11.40
2024-04-24T11:20:37.769Z,10.45
2024-04-24T11:23:49.313Z,10.95
2024-04-24T11:26:53.955Z,9.70
2024-04-24T11:29:58.921Z,10.80
2024-04-24T11:33:06.665Z,10.45
2024-04-24T11:36:11.441Z,10.90
2024-04-24T11:39:20.084Z,8.77
2024-04-24T11:42:26.075Z,11.77
2024-04-24T11:45:30.838Z,10.27
2024-04-24T11:48:46.749Z,9.63
2024-04-24T11:51:55.088Z,8.45
2024-04-24T11:54:59.580Z,9.63
2024-04-24T11:58:11.813Z,8.10
2024-04-24T12:01:19.123Z,7.73
2024-04-24T12:04:27.458Z,8.75
2024-04-24T12:07:33.092Z,8.52
2024-04-24T12:10:38.185Z,8.00
2024-04-24T12:13:44.125Z,9.50
2024-04-24T12:16:49.330Z,9.57
2024-04-24T12:19:56.949Z,10.02
2024-04-24T12:23:03.145Z,9.40
2024-04-24T12:26:08.787Z,9.48
2024-04-24T12:29:15.632Z,9.77
2024-04-24T12:32:21.507Z,9.70
2024-04-24T12:35:29.281Z,8.43
2024-04-24T12:38:34.014Z,10.00
2024-04-24T12:41:38.836Z,8.30
2024-04-24T12:44:45.064Z,8.53
2024-04-24T12:47:50.009Z,7.70
2024-04-24T12:50:57.915Z,7.82
2024-04-24T12:54:03.099Z,6.33
2024-04-24T12:57:09.859Z,6.10
2024-04-24T13:00:18.378Z,5.50
2024-04-24T13:03:26.523Z,6.55
2024-04-24T13:06:34.751Z,6.32
2024-04-24T13:09:39.469Z,5.83
2024-04-24T13:12:46.548Z,5.95
2024-04-24T13:15:51.721Z,5.90
2024-04-24T13:18:56.851Z,6.57
2024-04-24T13:22:05.246Z,7.78
2024-04-24T13:25:10.453Z,5.90
2024-04-24T13:28:14.981Z,6.85
2024-04-24T13:31:19.749Z,8.85
2024-04-24T13:34:24.674Z,5.47
2024-04-24T13:37:31.831Z,7.35
2024-04-24T13:40:36.545Z,8.57
2024-04-24T13:43:41.483Z,7.47
2024-04-24T13:46:46.156Z,8.43
2024-04-24T13:49:51.110Z,7.90
2024-04-24T13:52:58.557Z,6.75
2024-04-24T13:56:03.950Z,7.87
2024-04-24T13:59:08.538Z,7.90
2024-04-24T14:02:13.345Z,8.57
2024-04-24T14:05:18.125Z,7.55
2024-04-24T14:08:27.819Z,7.43
2024-04-24T14:11:34.608Z,9.63
2024-04-24T14:14:39.771Z,9.07
2024-04-24T14:17:44.866Z,8.63
2024-04-24T14:20:49.937Z,9.18
2024-04-24T14:23:59.142Z,9.10
2024-04-24T14:27:03.731Z,7.47
2024-04-24T14:30:09.689Z,8.98
2024-04-24T14:33:14.325Z,9.23
2024-04-24T14:36:20.456Z,8.60
2024-04-24T14:39:30.141Z,7.72
2024-04-24T14:42:34.884Z,8.50
2024-04-24T14:45:39.597Z,9.13
2024-04-24T14:48:44.491Z,8.87
2024-04-24T14:51:49.961Z,8.23
2024-04-24T14:54:57.469Z,7.70
2024-04-24T14:58:02.252Z,8.20
2024-04-24T15:01:08.184Z,6.90
2024-04-24T15:04:14.544Z,8.07
2024-04-24T15:07:19.473Z,7.30
2024-04-24T15:10:27.394Z,6.82
2024-04-24T15:13:31.956Z,10.35
2024-04-24T15:16:36.668Z,9.50
2024-04-24T15:19:42.424Z,10.87
2024-04-24T15:22:48.002Z,8.93
2024-04-24T15:25:55.898Z,7.97
2024-04-24T15:29:00.763Z,7.53
2024-04-24T15:32:05.804Z,8.25
2024-04-24T15:35:10.925Z,8.30
2024-04-24T15:38:17.078Z,11.00
2024-04-24T15:41:24.350Z,10.15
2024-04-24T15:44:29.090Z,8.18
2024-04-24T15:47:34.125Z,8.85
2024-04-24T15:50:39.387Z,8.00
2024-04-24T15:53:44.200Z,8.57
2024-04-24T15:56:51.652Z,7.38
2024-04-24T15:59:56.889Z,9.20
2024-04-24T16:03:01.751Z,8.25
2024-04-24T16:06:06.933Z,9.77
2024-04-24T16:09:11.583Z,8.30
2024-04-24T16:12:19.047Z,11.35
2024-04-24T16:15:23.603Z,10.57
2024-04-24T16:18:36.238Z,9.45
2024-04-24T16:21:47.418Z,8.63
2024-04-24T16:24:52.279Z,8.20
2024-04-24T16:27:59.703Z,9.75
2024-04-24T16:31:04.237Z,9.43
2024-04-24T16:34:09.189Z,8.43
2024-04-24T16:37:13.880Z,10.43
2024-04-24T16:40:18.564Z,10.02
2024-04-24T16:43:25.894Z,9.38
2024-04-24T16:46:30.580Z,9.77
2024-04-24T16:49:36.860Z,10.37
2024-04-24T16:52:41.557Z,9.82
2024-04-24T16:55:48.451Z,10.40
2024-04-24T16:58:57.155Z,10.60
2024-04-24T17:02:02.289Z,10.50
2024-04-24T17:05:11.130Z,10.17
2024-04-24T17:08:16.463Z,10.00
2024-04-24T17:11:21.351Z,11.73
2024-04-24T17:14:30.825Z,11.70
2024-04-24T17:17:36.483Z,10.07
2024-04-24T17:20:42.063Z,10.30
2024-04-24T17:23:47.249Z,9.75
2024-04-24T17:26:52.990Z,10.38
2024-04-24T17:30:00.348Z,10.55
2024-04-24T17:33:04.990Z,9.10
2024-04-24T17:36:12.580Z,9.27
2024-04-24T17:39:17.555Z,12.45
2024-04-24T17:42:22.114Z,11.50
2024-04-24T17:45:30.377Z,15.68
2024-04-24T17:48:35.266Z,14.20
2024-04-24T17:51:40.361Z,13.20
2024-04-24T17:54:44.972Z,9.52
2024-04-24T17:57:49.628Z,10.43
2024-04-24T18:00:57.087Z,9.95
2024-04-24T18:04:01.807Z,11.83
2024-04-24T18:07:06.400Z,12.37
2024-04-24T18:10:11.396Z,10.40
2024-04-24T18:13:16.824Z,11.15
2024-04-24T18:16:23.948Z,11.57
2024-04-24T18:19:28.860Z,10.20
2024-04-24T18:22:33.433Z,11.23
2024-04-24T18:25:38.604Z,9.88
2024-04-24T18:28:43.256Z,10.90
2024-04-24T18:31:50.872Z,10.73
2024-04-24T18:34:55.497Z,11.33
2024-04-24T18:38:00.604Z,10.23
2024-04-24T18:41:05.312Z,11.18
2024-04-24T18:44:10.496Z,10.90
2024-04-24T18:47:19.624Z,10.68
2024-04-24T18:50:25.930Z,11.83
2024-04-24T18:53:30.609Z,11.47
2024-04-24T18:56:35.498Z,11.45
2024-04-24T18:59:40.731Z,10.77
2024-04-24T19:02:49.734Z,11.05
2024-04-24T19:05:54.936Z,10.83
2024-04-24T19:09:00.162Z,11.43
2024-04-24T19:12:06.148Z,12.02
2024-04-24T19:15:11.935Z,12.40
2024-04-24T19:18:19.285Z,14.30
2024-04-24T19:21:23.931Z,13.10
2024-04-24T19:24:28.501Z,13.10
2024-04-24T19:27:40.564Z,13.73
2024-04-24T19:30:46.457Z,14.00
2024-04-24T19:33:53.942Z,13.65
2024-04-24T19:36:58.965Z,13.43
2024-04-24T19:40:04.662Z,15.93
2024-04-24T19:43:09.516Z,13.63
2024-04-24T19:46:14.075Z,14.05
2024-04-24T19:49:21.974Z,14.82
2024-04-24T19:52:26.574Z,14.50
2024-04-24T19:55:36.113Z,14.37
2024-04-24T19:58:41.143Z,16.38
2024-04-24T20:01:49.371Z,15.13
2024-04-24T20:04:56.812Z,15.73
2024-04-24T20:08:01.784Z,15.67
2024-04-24T20:11:08.462Z,15.97
2024-04-24T20:14:14.339Z,16.08
2024-04-24T20:17:20.557Z,14.90
2024-04-24T20:20:30.602Z,15.38
2024-04-24T20:23:36.141Z,14.10
2024-04-24T20:26:41.511Z,16.73
2024-04-24T20:29:46.373Z,14.57
2024-04-24T20:32:51.984Z,14.73
2024-04-24T20:36:01.827Z,15.27
2024-04-24T20:39:10.354Z,15.88
2024-04-24T20:42:15.599Z,15.02
2024-04-24T20:45:21.076Z,16.30
2024-04-24T20:48:26.580Z,16.80
2024-04-24T20:51:34.259Z,18.60
2024-04-24T20:54:41.178Z,17.70
2024-04-24T20:57:46.230Z,18.33
2024-04-24T21:00:51.921Z,18.38
2024-04-24T21:03:57.409Z,18.37
2024-04-24T21:07:17.502Z,19.40
2024-04-24T21:10:22.864Z,19.48
2024-04-24T21:13:28.558Z,18.35
2024-04-24T21:16:33.587Z,19.00
2024-04-24T21:19:38.374Z,17.50
2024-04-24T21:22:48.137Z,19.43
2024-04-24T21:25:53.104Z,19.13
2024-04-24T21:28:57.833Z,19.73
2024-04-24T21:32:02.775Z,18.40
2024-04-24T21:35:07.934Z,19.77
2024-04-24T21:38:15.461Z,18.90
2024-04-24T21:41:21.987Z,17.98
2024-04-24T21:44:27.363Z,19.45
2024-04-24T21:47:32.241Z,19.75
2024-04-24T21:50:37.360Z,21.87
2024-04-24T21:53:45.365Z,21.80
2024-04-24T21:56:50.301Z,20.30
2024-04-24T21:59:55.103Z,21.67
2024-04-24T22:03:00.150Z,18.23
2024-04-24T22:06:05.187Z,20.65
2024-04-24T22:09:12.526Z,19.25
2024-04-24T22:12:17.494Z,21.73
2024-04-24T22:15:22.818Z,20.03
2024-04-24T22:18:29.352Z,20.13
2024-04-24T22:21:53.970Z,20.32
2024-04-24T22:25:01.948Z,21.70
2024-04-24T22:28:07.462Z,21.15
2024-04-24T22:31:14.472Z,18.92
2024-04-24T22:34:19.882Z,20.40
2024-04-24T22:37:24.879Z,20.63
2024-04-24T22:40:33.766Z,20.20
2024-04-24T22:43:39.706Z,19.23
2024-04-24T22:46:44.713Z,22.10
2024-04-24T22:49:49.818Z,22.40
2024-04-24T22:52:54.855Z,22.70
2024-04-24T22:56:02.554Z,21.83
2024-04-24T22:59:07.710Z,23.98
2024-04-24T23:02:13.076Z,22.38
2024-04-24T23:05:18.069Z,20.73
2024-04-24T23:08:24.955Z,21.98
2024-04-24T23:11:33.424Z,21.98
2024-04-24T23:14:38.602Z,20.98
2024-04-24T23:17:45.324Z,22.77
2024-04-24T23:20:50.575Z,20.27
2024-04-24T23:23:55.504Z,22.17
2024-04-24T23:27:02.714Z,22.00
2024-04-24T23:30:08.468Z,21.23
2024-04-24T23:33:13.074Z,22.33
2024-04-24T23:36:17.805Z,24.10
2024-04-24T23:39:22.530Z,21.40
2024-04-24T23:42:29.908Z,22.92
2024-04-24T23:45:35.514Z,24.77
2024-04-24T23:48:40.350Z,22.63
2024-04-24T23:55:07.589Z,27.13
2024-04-24T23:58:15.656Z,21.63
